Time;durP1;ratioP1;P1;durP2;ratioP2;P2;SDS_P1;SDS_P2;PMS_P1;PMS_P2;Temp;Humidity;BMP_temperature;BMP_pressure;BME280_temperature;BME280_humidity;BME280_pressure;Samples;Min_cycle;Max_cycle;Signal;HPM_P1;HPM_P2
2021/04/05 15:12:21;;;;;;;4.90;0.77;;;4.80;99.90;;;;;;5346457;23;18586113;-70
2021/04/05 15:14:47;;;;;;;0.73;0.37;;;4.70;99.90;;;;;;6101874;23;20238;-73
2021/04/05 15:17:13;;;;;;;2.00;0.50;;;4.90;99.90;;;;;;6101780;23;20206;-76
2021/04/05 15:19:39;;;;;;;1.50;0.50;;;4.60;99.90;;;;;;6102039;23;20199;-75
2021/04/05 15:22:05;;;;;;;1.83;0.30;;;4.20;99.90;;;;;;6102251;23;20183;-78
2021/04/05 15:24:32;;;;;;;1.27;0.30;;;4.00;99.90;;;;;;6101857;23;20179;-76
2021/04/05 15:26:59;;;;;;;3.50;0.50;;;4.00;99.90;;;;;;6101989;23;20214;-72
2021/04/05 15:29:25;;;;;;;6.87;1.13;;;4.10;99.90;;;;;;6101935;23;20250;-74
2021/04/05 15:31:51;;;;;;;4.53;1.73;;;4.10;99.90;;;;;;6101881;23;20193;-73
2021/04/05 15:34:19;;;;;;;7.47;1.67;;;4.00;99.90;;;;;;6102078;23;20178;-72
2021/04/05 15:36:45;;;;;;;1.03;0.33;;;4.10;99.90;;;;;;6095556;23;20232;-72
2021/04/05 15:39:15;;;;;;;3.60;0.30;;;3.90;99.90;;;;;;6100530;23;20281;-73
2021/04/05 15:41:41;;;;;;;2.50;0.63;;;3.80;99.90;;;;;;6101771;23;20264;-70
2021/04/05 15:44:08;;;;;;;10.03;3.77;;;3.50;99.90;;;;;;6099955;23;20189;-76
2021/04/05 15:46:34;;;;;;;5.57;2.33;;;3.20;99.90;;;;;;6099788;23;20194;-76
2021/04/05 15:49:10;;;;;;;2.40;0.60;;;3.00;99.90;;;;;;6099892;23;20226;-69
2021/04/05 15:51:46;;;;;;;4.47;1.20;;;2.90;99.90;;;;;;6100007;23;20185;-81
2021/04/05 15:54:15;;;;;;;2.83;1.10;;;3.00;99.90;;;;;;6101460;23;20185;-90
2021/04/05 15:56:43;;;;;;;3.93;1.20;;;3.20;99.90;;;;;;6101120;23;20202;-79
2021/04/05 15:59:09;;;;;;;7.17;1.17;;;3.30;99.90;;;;;;6099726;23;20333;-72
2021/04/05 16:01:35;;;;;;;3.93;0.70;;;3.40;99.90;;;;;;6100313;23;20186;-73
2021/04/05 16:04:03;;;;;;;3.43;0.87;;;3.50;99.90;;;;;;6099803;23;20189;-73
2021/04/05 16:06:30;;;;;;;4.47;2.03;;;3.70;99.90;;;;;;6098646;23;20185;-70
2021/04/05 16:08:56;;;;;;;4.13;1.13;;;3.90;99.90;;;;;;6100259;23;20205;-71
2021/04/05 16:11:29;;;;;;;1.57;0.47;;;4.20;99.90;;;;;;6099484;23;20245;-78
2021/04/05 16:14:00;;;;;;;3.33;1.13;;;4.60;99.90;;;;;;6124450;23;20681;-75
2021/04/05 16:16:29;;;;;;;3.40;0.90;;;5.00;99.90;;;;;;6125287;23;20198;-70
2021/04/05 16:18:59;;;;;;;4.23;0.60;;;5.20;99.90;;;;;;6125477;23;20199;-74
2021/04/05 16:21:27;;;;;;;10.10;1.17;;;5.40;99.90;;;;;;6125070;23;20230;-76
2021/04/05 16:23:57;;;;;;;0.60;0.47;;;5.40;99.90;;;;;;6125369;23;20225;-75
2021/04/05 16:26:26;;;;;;;5.97;0.43;;;5.10;99.90;;;;;;6124808;23;20187;-74
2021/04/05 16:29:00;;;;;;;2.47;0.50;;;4.70;99.90;;;;;;6124844;23;20689;-77
2021/04/05 16:31:31;;;;;;;2.80;0.73;;;4.40;99.90;;;;;;6126168;23;20183;-73
2021/04/05 16:34:03;;;;;;;2.93;0.60;;;4.00;99.90;;;;;;6124910;23;20648;-79
2021/04/05 16:36:30;;;;;;;4.43;0.40;;;3.80;99.90;;;;;;6124734;23;20203;-76
2021/04/05 16:39:03;;;;;;;2.77;0.30;;;3.40;99.90;;;;;;6125493;23;20258;-69
2021/04/05 16:41:36;;;;;;;1.20;0.50;;;3.30;99.90;;;;;;6127006;23;20183;-69
2021/04/05 16:44:04;;;;;;;9.13;0.80;;;3.20;99.90;;;;;;6126378;23;20538;-69
2021/04/05 16:46:32;;;;;;;6.70;1.17;;;3.20;99.90;;;;;;6127267;23;20187;-75
2021/04/05 16:49:01;;;;;;;3.97;0.97;;;3.20;99.90;;;;;;6127007;23;20324;-75
2021/04/05 16:51:43;;;;;;;13.67;1.83;;;3.30;99.90;;;;;;6126456;23;20183;-76
2021/04/05 16:54:10;;;;;;;7.17;1.17;;;3.30;99.90;;;;;;6126842;23;20229;-72
2021/04/05 16:56:41;;;;;;;9.00;1.43;;;3.30;99.90;;;;;;6127010;23;20210;-73
2021/04/05 16:59:11;;;;;;;10.97;2.13;;;3.30;99.90;;;;;;6126417;23;20207;-71
2021/04/05 17:01:39;;;;;;;6.17;1.50;;;3.40;99.90;;;;;;6126809;23;20190;-74
2021/04/05 17:04:10;;;;;;;7.20;2.30;;;3.60;99.90;;;;;;6126407;23;20641;-72
2021/04/05 17:06:43;;;;;;;8.13;1.13;;;3.80;99.90;;;;;;6127109;23;20187;-77
2021/04/05 17:09:11;;;;;;;2.57;0.63;;;3.90;99.90;;;;;;6126419;23;20669;-74
2021/04/05 17:11:45;;;;;;;2.93;0.80;;;4.00;99.90;;;;;;6126766;23;20265;-77
2021/04/05 17:14:17;;;;;;;1.37;0.53;;;4.10;99.90;;;;;;6126711;23;20237;-72
2021/04/05 17:16:48;;;;;;;0.70;0.30;;;4.10;99.90;;;;;;6126570;23;20203;-72
2021/04/05 17:19:23;;;;;;;13.77;1.53;;;4.10;99.90;;;;;;6126574;23;20203;-68
2021/04/05 17:21:50;;;;;;;6.50;1.60;;;4.20;99.90;;;;;;6126913;23;20232;-74
2021/04/05 17:24:16;;;;;;;3.93;1.30;;;4.40;99.90;;;;;;6121968;23;20179;-73
2021/04/05 17:26:44;;;;;;;10.53;2.33;;;4.40;99.90;;;;;;6124933;23;20183;-71
2021/04/05 17:29:21;;;;;;;6.33;1.23;;;4.50;99.90;;;;;;6124165;23;20282;-71
2021/04/05 17:31:55;;;;;;;5.57;1.53;;;4.60;99.90;;;;;;6124073;23;20179;-72
2021/04/05 17:34:25;;;;;;;12.80;6.13;;;4.40;99.90;;;;;;6124649;23;20232;-71
2021/04/05 17:36:55;;;;;;;5.03;1.03;;;4.20;99.90;;;;;;6124776;23;20281;-71
2021/04/05 17:39:27;;;;;;;16.37;2.37;;;4.10;99.90;;;;;;6124419;23;20199;-73
2021/04/05 17:41:59;;;;;;;2.83;0.80;;;4.00;99.90;;;;;;6124950;23;20201;-72
2021/04/05 17:44:32;;;;;;;2.90;1.10;;;4.00;99.90;;;;;;6124850;23;20645;-72
2021/04/05 17:47:10;;;;;;;4.83;0.97;;;3.90;99.90;;;;;;6124091;23;20209;-72
2021/04/05 17:49:44;;;;;;;2.20;0.83;;;3.90;99.90;;;;;;6124485;23;20673;-73
2021/04/05 17:52:13;;;;;;;10.70;1.60;;;3.90;99.90;;;;;;6124580;23;20637;-73
2021/04/05 17:54:52;;;;;;;10.10;1.20;;;3.80;99.90;;;;;;6122080;23;20185;-72
2021/04/05 17:57:25;;;;;;;3.50;0.63;;;3.70;99.90;;;;;;6125031;23;20284;-71
2021/04/05 18:00:08;;;;;;;6.10;0.97;;;3.70;99.90;;;;;;6126528;23;20203;-71
2021/04/05 18:02:46;;;;;;;7.43;1.20;;;3.60;99.90;;;;;;6126325;23;20214;-69
2021/04/05 18:05:27;;;;;;;5.20;1.70;;;3.60;99.90;;;;;;6127004;23;20190;-70
2021/04/05 18:08:00;;;;;;;11.67;2.93;;;3.60;99.90;;;;;;6126640;23;20182;-77
2021/04/05 18:10:44;;;;;;;6.37;2.20;;;3.70;99.90;;;;;;6128926;23;20187;-70
2021/04/05 18:13:24;;;;;;;14.43;3.20;;;3.80;99.90;;;;;;6126175;23;20193;-72
2021/04/05 18:16:00;;;;;;;3.90;1.17;;;3.90;99.90;;;;;;6126584;23;20202;-69
2021/04/05 18:18:29;;;;;;;6.33;0.90;;;4.00;99.90;;;;;;6126389;23;20534;-69
2021/04/05 18:21:29;;;;;;;4.47;0.67;;;4.10;99.90;;;;;;6126379;23;20179;-69
2021/04/05 18:24:16;;;;;;;4.43;0.80;;;4.10;99.90;;;;;;6077564;23;20185;-71
2021/04/05 18:26:55;;;;;;;2.03;0.40;;;3.90;99.90;;;;;;6126463;23;20183;-70
2021/04/05 18:29:32;;;;;;;7.33;1.67;;;3.70;99.90;;;;;;6125968;23;20202;-72
2021/04/05 18:32:05;;;;;;;6.47;1.37;;;3.50;99.90;;;;;;6126335;23;20189;-69
2021/04/05 18:34:37;;;;;;;5.80;0.83;;;3.30;99.90;;;;;;6126438;23;20238;-73
2021/04/05 18:37:11;;;;;;;3.00;0.70;;;3.20;99.90;;;;;;6126059;23;20211;-74
2021/04/05 18:39:40;;;;;;;3.73;0.57;;;3.30;99.90;;;;;;6126892;23;20205;-75
2021/04/05 18:42:08;;;;;;;5.47;0.80;;;3.20;99.90;;;;;;6128453;23;20238;-70
2021/04/05 18:44:43;;;;;;;4.27;1.00;;;3.20;99.90;;;;;;6128124;23;20266;-70
2021/04/05 18:47:14;;;;;;;3.70;0.50;;;3.10;99.90;;;;;;6127965;23;20550;-69
2021/04/05 18:49:44;;;;;;;2.90;0.63;;;3.20;99.90;;;;;;6127950;23;20226;-71
2021/04/05 18:52:19;;;;;;;3.00;0.50;;;3.10;99.90;;;;;;6128184;23;20498;-73
2021/04/05 18:54:51;;;;;;;1.20;0.50;;;3.10;99.90;;;;;;6127753;23;20496;-70
2021/04/05 18:57:21;;;;;;;4.83;0.87;;;3.10;99.90;;;;;;6128185;23;20341;-70
2021/04/05 18:59:55;;;;;;;1.97;0.60;;;3.10;99.90;;;;;;6127529;23;20203;-74
2021/04/05 19:02:26;;;;;;;4.43;0.77;;;3.10;99.90;;;;;;6127852;23;20626;-69
2021/04/05 19:05:03;;;;;;;5.40;0.90;;;3.10;99.90;;;;;;6127952;23;20697;-69
2021/04/05 19:07:36;;;;;;;7.73;0.53;;;3.20;99.90;;;;;;6127557;23;20297;-69
2021/04/05 19:10:11;;;;;;;0.90;0.37;;;3.30;99.90;;;;;;6127669;23;20205;-75
2021/04/05 19:13:03;;;;;;;1.40;0.40;;;3.40;99.90;;;;;;6128232;23;20545;-71
2021/04/05 19:15:54;;;;;;;2.53;0.80;;;3.40;99.90;;;;;;6128011;23;20178;-75
2021/04/05 19:18:43;;;;;;;1.17;0.40;;;3.30;99.90;;;;;;6127552;23;20261;-69
2021/04/05 19:21:19;;;;;;;10.70;1.00;;;3.20;99.90;;;;;;6127700;23;20190;-69
2021/04/05 19:24:29;;;;;;;5.80;1.10;;;3.10;99.90;;;;;;6127820;23;20230;-68
2021/04/05 19:27:19;;;;;;;8.53;0.60;;;3.00;99.90;;;;;;6127930;23;20187;-70
2021/04/05 19:30:03;;;;;;;0.70;0.47;;;2.90;99.90;;;;;;6127830;23;20258;-68
2021/04/05 19:32:52;;;;;;;2.23;0.37;;;2.90;99.90;;;;;;6127511;23;20189;-68
2021/04/05 19:35:35;;;;;;;2.73;0.53;;;2.90;99.90;;;;;;6127115;23;20642;-69
2021/04/05 19:38:38;;;;;;;2.67;0.97;;;2.90;99.90;;;;;;6127450;23;20210;-68
2021/04/05 19:41:17;;;;;;;5.83;1.13;;;2.90;99.90;;;;;;6126090;23;20642;-68
2021/04/05 19:44:09;;;;;;;5.93;0.50;;;3.00;99.90;;;;;;6127705;23;20179;-71
2021/04/05 19:46:37;;;;;;;6.67;0.70;;;3.10;99.90;;;;;;6127590;23;20186;-76
2021/04/05 19:49:30;;;;;;;2.10;0.70;;;3.20;99.90;;;;;;6127305;23;20712;-68
2021/04/05 19:52:20;;;;;;;1.20;0.63;;;3.30;99.90;;;;;;6127286;23;20514;-69
2021/04/05 19:55:04;;;;;;;5.10;0.60;;;3.40;99.90;;;;;;6127565;23;20178;-69
2021/04/05 19:58:22;;;;;;;6.03;0.80;;;3.40;99.90;;;;;;6066359;23;20567;-71
2021/04/05 20:00:57;;;;;;;5.07;0.97;;;3.20;99.90;;;;;;6009581;23;20221;-70
2021/04/05 20:03:49;;;;;;;2.60;0.50;;;3.30;99.90;;;;;;6009680;23;20192;-69
2021/04/05 20:06:25;;;;;;;2.83;0.90;;;3.30;99.90;;;;;;6081492;23;20190;-69
2021/04/05 20:09:12;;;;;;;1.17;0.40;;;3.20;99.90;;;;;;6127353;23;20207;-74
2021/04/05 20:11:53;;;;;;;7.37;1.00;;;3.20;99.90;;;;;;6127373;23;20197;-73
2021/04/05 20:14:42;;;;;;;2.80;0.40;;;3.30;99.90;;;;;;6127125;23;20204;-69
2021/04/05 20:17:14;;;;;;;4.67;0.87;;;3.30;99.90;;;;;;6126425;23;20673;-69
2021/04/05 20:19:51;;;;;;;2.80;0.63;;;3.20;99.90;;;;;;6126416;23;20270;-72
